Time;durP1;ratioP1;P1;durP2;ratioP2;P2;SDS_P1;SDS_P2;PMS_P1;PMS_P2;Temp;Humidity;BMP_temperature;BMP_pressure;BME280_temperature;BME280_humidity;BME280_pressure;Samples;Min_cycle;Max_cycle;Signal;HPM_P1;HPM_P2
2022/10/27 00:02:23;;;;;;;20.48;8.73;;;11.70;99.90;;;;;;5075653;28;20036;-70
2022/10/27 00:04:48;;;;;;;20.52;8.80;;;11.80;99.90;;;;;;5075407;28;20106;-72
2022/10/27 00:07:14;;;;;;;15.18;7.68;;;11.80;99.90;;;;;;5073397;28;20047;-70
2022/10/27 00:09:39;;;;;;;19.05;8.80;;;11.80;99.90;;;;;;5055462;28;20124;-72
2022/10/27 00:12:06;;;;;;;19.38;9.07;;;11.80;99.90;;;;;;5055353;28;20057;-71
2022/10/27 00:14:32;;;;;;;17.75;8.05;;;11.80;99.90;;;;;;5037592;28;20052;-72
2022/10/27 00:16:57;;;;;;;22.23;9.07;;;11.90;99.90;;;;;;5038094;28;20045;-72
2022/10/27 00:19:24;;;;;;;19.67;8.75;;;11.80;99.90;;;;;;5073463;28;20476;-72
2022/10/27 00:21:50;;;;;;;17.15;8.55;;;11.70;99.90;;;;;;5075435;28;20048;-71
2022/10/27 00:24:17;;;;;;;22.55;8.73;;;11.70;99.90;;;;;;5075521;28;20037;-71
2022/10/27 00:26:43;;;;;;;19.67;10.43;;;11.70;99.90;;;;;;5075177;28;20044;-73
2022/10/27 00:29:08;;;;;;;21.98;10.85;;;11.70;99.90;;;;;;5040318;28;20343;-71
2022/10/27 00:31:34;;;;;;;24.08;10.63;;;11.60;99.90;;;;;;5037858;28;20473;-70
2022/10/27 00:34:00;;;;;;;19.83;10.00;;;11.70;99.90;;;;;;5055388;28;20052;-71
2022/10/27 00:36:26;;;;;;;25.00;10.93;;;11.60;99.90;;;;;;5021368;28;20457;-71
2022/10/27 00:38:56;;;;;;;18.25;9.75;;;11.70;99.90;;;;;;5068984;28;20058;-71
2022/10/27 00:41:33;;;;;;;20.50;10.18;;;11.70;99.90;;;;;;5074871;28;20527;-71
2022/10/27 00:44:01;;;;;;;21.92;11.52;;;11.60;99.90;;;;;;5074887;28;20071;-73
2022/10/27 00:46:35;;;;;;;23.10;12.10;;;11.60;99.90;;;;;;5074909;28;20052;-72
2022/10/27 00:49:17;;;;;;;25.63;11.48;;;11.70;99.90;;;;;;5059129;28;20342;-71
2022/10/27 00:51:47;;;;;;;23.02;12.73;;;11.70;99.90;;;;;;5055187;28;20404;-71
2022/10/27 00:54:14;;;;;;;24.77;12.55;;;11.70;99.90;;;;;;5055158;28;20501;-70
2022/10/27 00:56:41;;;;;;;24.27;12.63;;;11.60;99.90;;;;;;5054783;28;20052;-72
2022/10/27 00:59:06;;;;;;;17.88;10.63;;;11.70;99.90;;;;;;5070326;28;20068;-71
2022/10/27 01:01:32;;;;;;;22.52;12.32;;;11.70;99.90;;;;;;5074910;28;20353;-71
2022/10/27 01:03:57;;;;;;;16.13;10.85;;;11.60;99.90;;;;;;5074857;28;20095;-72
2022/10/27 01:06:25;;;;;;;21.40;12.18;;;11.60;99.90;;;;;;5057285;28;20098;-70
2022/10/27 01:08:50;;;;;;;28.73;13.45;;;11.70;99.90;;;;;;5060705;28;20171;-71
2022/10/27 01:11:16;;;;;;;29.73;14.23;;;11.60;99.90;;;;;;5037336;28;20120;-71
2022/10/27 01:13:42;;;;;;;23.20;13.07;;;11.60;99.90;;;;;;5056263;28;20040;-72
2022/10/27 01:16:25;;;;;;;27.23;15.80;;;11.60;99.90;;;;;;5054702;28;20151;-70
2022/10/27 01:19:24;;;;;;;22.83;12.52;;;11.70;99.90;;;;;;5054928;28;20361;-71
2022/10/27 01:22:18;;;;;;;19.73;12.65;;;11.60;99.90;;;;;;5054825;28;20171;-70
2022/10/27 01:25:10;;;;;;;23.30;14.65;;;11.60;99.90;;;;;;5029465;28;20064;-73
2022/10/27 01:27:53;;;;;;;29.23;15.35;;;11.60;99.90;;;;;;5061324;28;20045;-71
2022/10/27 01:30:20;;;;;;;26.95;15.50;;;11.70;99.90;;;;;;5078534;28;20048;-71
2022/10/27 01:33:07;;;;;;;30.30;16.52;;;11.80;99.90;;;;;;5078565;28;20052;-71
2022/10/27 01:35:54;;;;;;;31.17;17.40;;;11.80;99.90;;;;;;5063827;28;20453;-72
2022/10/27 01:38:37;;;;;;;30.95;18.30;;;11.90;99.90;;;;;;5058691;28;20044;-71
2022/10/27 01:41:13;;;;;;;37.40;16.23;;;11.90;99.90;;;;;;5058419;28;20045;-71
2022/10/27 01:43:39;;;;;;;29.05;16.13;;;12.00;99.90;;;;;;5058542;28;20492;-71
2022/10/27 01:46:07;;;;;;;27.45;16.00;;;12.00;99.90;;;;;;5076486;28;20036;-72
2022/10/27 01:48:35;;;;;;;30.38;15.63;;;12.10;99.90;;;;;;5077524;28;20450;-70
2022/10/27 01:51:00;;;;;;;26.95;16.33;;;12.10;99.90;;;;;;5077995;28;20453;-70
2022/10/27 01:53:33;;;;;;;24.65;16.05;;;12.10;99.90;;;;;;5078223;28;20131;-72
2022/10/27 01:56:04;;;;;;;26.17;15.50;;;12.10;99.90;;;;;;5060272;28;20083;-71
2022/10/27 01:59:00;;;;;;;31.35;16.50;;;12.30;99.90;;;;;;5040187;28;20060;-71
2022/10/27 02:01:39;;;;;;;28.65;15.80;;;12.20;99.90;;;;;;5058314;28;20136;-72
2022/10/27 02:04:33;;;;;;;36.78;17.55;;;12.20;99.90;;;;;;5059536;28;20048;-72
2022/10/27 02:07:11;;;;;;;32.50;15.68;;;12.20;99.90;;;;;;5077782;28;20059;-71
2022/10/27 02:09:39;;;;;;;30.38;16.73;;;12.20;99.90;;;;;;5060514;28;20123;-71
2022/10/27 02:12:12;;;;;;;33.15;15.25;;;12.20;99.90;;;;;;5060481;28;20079;-71
2022/10/27 02:14:38;;;;;;;24.88;15.52;;;12.20;99.90;;;;;;5071188;28;20133;-74
2022/10/27 02:17:07;;;;;;;31.38;14.35;;;12.10;99.90;;;;;;5040450;28;20135;-72
2022/10/27 02:19:35;;;;;;;26.98;15.43;;;12.10;99.90;;;;;;5057895;28;20059;-71
2022/10/27 02:22:02;;;;;;;27.80;16.90;;;12.10;99.90;;;;;;5040035;28;20045;-71
2022/10/27 02:24:28;;;;;;;32.88;16.92;;;12.10;99.90;;;;;;5061446;28;20106;-71
2022/10/27 02:27:19;;;;;;;37.22;17.55;;;12.10;99.90;;;;;;5077199;28;20464;-71
2022/10/27 02:29:48;;;;;;;26.38;14.48;;;12.10;99.90;;;;;;5060135;28;20048;-73
2022/10/27 02:32:20;;;;;;;30.23;15.57;;;12.10;99.90;;;;;;5077342;28;20052;-73
2022/10/27 02:34:47;;;;;;;28.88;17.73;;;12.00;99.90;;;;;;5070126;28;20072;-70
2022/10/27 02:37:40;;;;;;;32.03;16.77;;;12.00;99.90;;;;;;5056484;28;20051;-72
2022/10/27 02:40:06;;;;;;;22.83;14.57;;;12.00;99.90;;;;;;5035956;28;20072;-70
2022/10/27 02:42:32;;;;;;;26.10;15.00;;;11.90;99.90;;;;;;5057412;28;20139;-71
2022/10/27 02:44:58;;;;;;;30.33;15.52;;;12.00;99.90;;;;;;5065214;28;20127;-72
2022/10/27 02:47:23;;;;;;;31.88;16.60;;;11.90;99.90;;;;;;5059497;28;20036;-72
2022/10/27 02:49:49;;;;;;;26.48;16.50;;;11.90;99.90;;;;;;5076993;28;20056;-70
2022/10/27 02:52:15;;;;;;;26.52;16.42;;;12.00;99.90;;;;;;5076984;28;20041;-70
2022/10/27 02:54:41;;;;;;;31.17;17.25;;;11.80;99.90;;;;;;5053420;28;20084;-71
2022/10/27 02:57:07;;;;;;;34.47;17.05;;;11.80;99.90;;;;;;5057182;28;20059;-70
2022/10/27 02:59:34;;;;;;;29.35;17.00;;;11.80;99.90;;;;;;5056694;28;20059;-70
2022/10/27 03:01:59;;;;;;;37.38;18.58;;;11.70;99.90;;;;;;5057007;28;20045;-72
2022/10/27 03:04:25;;;;;;;29.52;17.17;;;11.70;99.90;;;;;;5059538;28;20093;-71
2022/10/27 03:06:50;;;;;;;27.75;15.73;;;11.80;99.90;;;;;;5077068;28;20053;-71
2022/10/27 03:09:16;;;;;;;36.90;18.13;;;11.80;99.90;;;;;;5059540;28;20055;-70
2022/10/27 03:11:42;;;;;;;33.08;16.83;;;11.70;99.90;;;;;;5076594;28;20101;-72
2022/10/27 03:14:07;;;;;;;35.42;18.40;;;11.70;99.90;;;;;;5075255;28;20051;-71
2022/10/27 03:16:33;;;;;;;31.50;17.15;;;11.70;99.90;;;;;;5056409;28;20128;-70
2022/10/27 03:18:58;;;;;;;30.60;18.30;;;11.70;99.90;;;;;;5056708;28;20048;-71
2022/10/27 03:21:24;;;;;;;26.83;16.83;;;11.60;99.90;;;;;;5056523;28;20070;-72
2022/10/27 03:23:49;;;;;;;38.85;19.30;;;11.70;99.90;;;;;;5039004;28;20053;-71
2022/10/27 03:26:15;;;;;;;39.35;20.23;;;11.60;99.90;;;;;;5056014;28;20075;-70
2022/10/27 03:28:41;;;;;;;24.40;15.80;;;11.70;99.90;;;;;;5076206;28;20121;-72
2022/10/27 03:31:06;;;;;;;28.50;18.98;;;11.70;99.90;;;;;;5076625;28;20338;-72
2022/10/27 03:33:32;;;;;;;29.42;18.77;;;11.70;99.90;;;;;;5058577;28;20484;-72
2022/10/27 03:35:58;;;;;;;34.25;20.77;;;11.80;99.90;;;;;;5060476;28;20144;-70
2022/10/27 03:38:24;;;;;;;35.30;17.08;;;11.70;99.90;;;;;;5039248;28;20048;-70
2022/10/27 03:40:50;;;;;;;27.92;17.60;;;11.80;99.90;;;;;;5073777;28;20047;-72
2022/10/27 03:43:15;;;;;;;32.67;18.13;;;11.70;99.90;;;;;;5076328;28;20105;-70
2022/10/27 03:45:41;;;;;;;38.45;19.08;;;11.70;99.90;;;;;;5074940;28;20032;-70
2022/10/27 03:48:10;;;;;;;32.03;18.38;;;11.70;99.90;;;;;;5075357;28;20045;-71
2022/10/27 03:50:36;;;;;;;46.00;21.13;;;11.60;99.90;;;;;;5075804;28;20055;-72
2022/10/27 03:53:03;;;;;;;27.42;17.02;;;11.80;99.90;;;;;;5075737;28;20046;-72
2022/10/27 03:55:31;;;;;;;31.83;17.45;;;11.80;99.90;;;;;;5064613;28;20127;-71
2022/10/27 03:57:58;;;;;;;31.38;15.82;;;11.70;99.90;;;;;;5055715;28;20044;-71
2022/10/27 04:00:24;;;;;;;30.98;18.75;;;11.70;99.90;;;;;;5037684;28;20500;-71
2022/10/27 04:02:53;;;;;;;30.92;17.95;;;11.70;99.90;;;;;;5055520;28;20053;-71
2022/10/27 04:05:19;;;;;;;35.33;19.42;;;11.70;99.90;;;;;;5045526;28;20033;-70
2022/10/27 04:07:45;;;;;;;33.42;18.25;;;11.80;99.90;;;;;;5044514;28;20431;-70
2022/10/27 04:10:11;;;;;;;29.30;17.00;;;11.80;99.90;;;;;;5055702;28;20087;-71
2022/10/27 04:12:37;;;;;;;37.42;20.02;;;11.80;99.90;;;;;;5075027;28;20048;-71
2022/10/27 04:15:03;;;;;;;31.35;14.23;;;11.80;99.90;;;;;;5075420;28;20460;-72
2022/10/27 04:17:29;;;;;;;26.38;16.65;;;11.80;99.90;;;;;;5075315;28;20048;-71
2022/10/27 04:19:54;;;;;;;31.00;17.95;;;11.80;99.90;;;;;;5075502;28;20112;-73
2022/10/27 04:22:20;;;;;;;30.98;19.23;;;11.80;99.90;;;;;;5075419;28;20119;-71
2022/10/27 04:24:45;;;;;;;33.40;17.58;;;11.80;99.90;;;;;;5074070;28;20106;-71
2022/10/27 04:27:11;;;;;;;41.55;18.95;;;11.80;99.90;;;;;;5069314;28;20083;-71
2022/10/27 04:29:37;;;;;;;30.98;16.30;;;11.90;99.90;;;;;;5068094;28;20063;-72
2022/10/27 04:32:02;;;;;;;34.42;19.83;;;11.90;99.90;;;;;;5055319;28;20049;-70
2022/10/27 04:34:28;;;;;;;28.05;17.45;;;12.00;99.90;;;;;;5037659;28;20373;-70
2022/10/27 04:36:54;;;;;;;40.40;19.35;;;12.10;99.90;;;;;;5043442;28;20044;-71
2022/10/27 04:39:20;;;;;;;35.75;18.60;;;11.90;99.90;;;;;;5074199;28;20465;-71
2022/10/27 04:41:45;;;;;;;36.45;18.45;;;11.90;99.90;;;;;;5075026;28;20080;-71
2022/10/27 04:44:11;;;;;;;29.98;18.35;;;11.90;99.90;;;;;;5057152;28;20134;-71
2022/10/27 04:46:37;;;;;;;26.25;17.60;;;12.20;99.90;;;;;;5053423;28;20052;-70
2022/10/27 04:49:03;;;;;;;29.50;18.05;;;11.80;99.90;;;;;;5037541;28;20438;-70
2022/10/27 04:51:28;;;;;;;32.60;19.58;;;11.80;99.90;;;;;;5037331;28;20060;-72
2022/10/27 04:53:54;;;;;;;37.65;20.48;;;11.80;99.90;;;;;;5054983;28;20041;-73
2022/10/27 04:56:20;;;;;;;41.00;19.88;;;11.80;99.90;;;;;;5055687;28;20060;-69
2022/10/27 04:58:45;;;;;;;44.05;19.77;;;11.90;99.90;;;;;;5076267;28;20056;-70
2022/10/27 05:01:12;;;;;;;28.25;15.23;;;11.80;99.90;;;;;;5063582;28;20058;-69
2022/10/27 05:03:38;;;;;;;32.92;18.48;;;12.00;99.90;;;;;;5081499;28;20369;-71
2022/10/27 05:06:04;;;;;;;46.72;21.70;;;12.00;99.90;;;;;;5064214;28;20045;-71
2022/10/27 05:08:30;;;;;;;44.88;20.52;;;11.80;99.90;;;;;;5061886;28;20041;-73
2022/10/27 05:10:56;;;;;;;37.35;18.50;;;11.80;99.90;;;;;;5061341;28;20099;-71
2022/10/27 05:13:22;;;;;;;36.03;18.55;;;11.70;99.90;;;;;;5061558;28;20084;-71
2022/10/27 05:15:48;;;;;;;32.25;19.83;;;11.80;99.90;;;;;;5060796;28;20524;-73
2022/10/27 05:18:13;;;;;;;34.13;19.67;;;11.70;99.90;;;;;;5077958;28;20079;-71
2022/10/27 05:20:39;;;;;;;45.00;21.90;;;11.70;99.90;;;;;;5081632;28;20386;-71
2022/10/27 05:23:05;;;;;;;34.28;19.80;;;11.80;99.90;;;;;;5063643;28;20049;-72
2022/10/27 05:25:30;;;;;;;34.70;20.27;;;11.90;99.90;;;;;;5081682;28;20074;-71
2022/10/27 05:28:07;;;;;;;53.30;24.27;;;11.80;99.90;;;;;;5066411;28;20049;-73
2022/10/27 05:30:33;;;;;;;32.70;18.25;;;11.80;99.90;;;;;;5061185;28;20558;-71
2022/10/27 05:32:59;;;;;;;36.50;21.88;;;11.80;99.90;;;;;;5061174;28;20132;-71
2022/10/27 05:35:24;;;;;;;32.50;18.83;;;11.80;99.90;;;;;;5043727;28;20076;-71
2022/10/27 05:37:51;;;;;;;30.90;17.83;;;11.80;99.90;;;;;;5073727;28;20036;-70
2022/10/27 05:40:16;;;;;;;33.85;19.05;;;11.80;99.90;;;;;;5063837;28;20041;-72
2022/10/27 05:42:54;;;;;;;33.72;20.23;;;11.80;99.90;;;;;;5081231;28;20052;-72
2022/10/27 05:45:22;;;;;;;32.47;20.83;;;11.80;99.90;;;;;;5081254;28;20044;-71
2022/10/27 05:47:47;;;;;;;40.17;20.75;;;11.80;99.90;;;;;;5068329;28;20056;-71
2022/10/27 05:50:13;;;;;;;37.90;22.98;;;11.80;99.90;;;;;;5061816;28;20121;-71
2022/10/27 05:52:39;;;;;;;39.60;23.20;;;11.90;99.90;;;;;;5061261;28;20044;-70
2022/10/27 05:55:05;;;;;;;33.65;21.02;;;11.90;99.90;;;;;;5061066;28;20124;-70
2022/10/27 05:57:30;;;;;;;37.83;22.38;;;11.90;99.90;;;;;;5070790;28;20055;-71
2022/10/27 05:59:56;;;;;;;36.72;23.02;;;12.00;99.90;;;;;;5080662;28;20056;-70
2022/10/27 06:02:22;;;;;;;45.63;23.27;;;12.00;99.90;;;;;;5081088;28;20159;-71
2022/10/27 06:04:47;;;;;;;38.85;23.45;;;12.00;99.90;;;;;;5080971;28;20410;-70
2022/10/27 06:07:13;;;;;;;39.80;22.77;;;11.90;99.90;;;;;;5073516;28;20041;-71
2022/10/27 06:09:38;;;;;;;38.58;21.67;;;12.00;99.90;;;;;;5060948;28;20086;-72
2022/10/27 06:12:04;;;;;;;31.25;21.20;;;12.00;99.90;;;;;;5056617;28;20374;-70
2022/10/27 06:14:29;;;;;;;29.20;19.48;;;12.10;99.90;;;;;;5058033;28;20049;-72
2022/10/27 06:16:55;;;;;;;33.13;21.23;;;12.20;99.90;;;;;;5061973;28;20055;-71
2022/10/27 06:19:20;;;;;;;41.88;21.42;;;12.20;99.90;;;;;;5059885;28;20042;-72
2022/10/27 06:21:46;;;;;;;39.95;23.17;;;12.20;99.90;;;;;;5077866;28;20507;-71
2022/10/27 06:24:12;;;;;;;34.28;19.98;;;12.20;99.90;;;;;;5077377;28;20053;-70
2022/10/27 06:26:37;;;;;;;35.67;21.67;;;12.20;99.90;;;;;;5075398;28;20127;-70
2022/10/27 06:29:03;;;;;;;29.77;18.13;;;12.20;99.90;;;;;;5040171;28;20055;-70
2022/10/27 06:31:28;;;;;;;40.78;19.75;;;12.10;99.90;;;;;;5057153;28;20057;-72
2022/10/27 06:33:54;;;;;;;31.92;18.77;;;12.20;99.90;;;;;;5057382;28;20128;-72
2022/10/27 06:36:19;;;;;;;33.53;19.58;;;12.20;99.90;;;;;;5040037;28;20105;-72
2022/10/27 06:38:45;;;;;;;35.50;19.35;;;12.10;99.90;;;;;;5058207;28;20103;-70
2022/10/27 06:41:11;;;;;;;27.83;18.13;;;12.10;99.90;;;;;;5059755;28;20048;-70
2022/10/27 06:43:36;;;;;;;28.27;17.38;;;12.10;99.90;;;;;;5077192;28;20468;-71
2022/10/27 06:46:02;;;;;;;35.45;18.83;;;12.10;99.90;;;;;;5059148;28;20049;-71
2022/10/27 06:48:27;;;;;;;28.55;18.33;;;12.20;99.90;;;;;;5059685;28;20045;-71
2022/10/27 06:50:53;;;;;;;29.67;16.73;;;12.20;99.90;;;;;;5057616;28;20090;-71
2022/10/27 06:53:19;;;;;;;29.52;16.65;;;12.20;99.90;;;;;;5057101;28;20079;-72
2022/10/27 06:55:44;;;;;;;22.98;15.30;;;12.20;99.90;;;;;;5056746;28;20047;-72
2022/10/27 06:58:10;;;;;;;29.42;15.40;;;12.20;99.90;;;;;;5052609;28;20061;-71
2022/10/27 07:00:36;;;;;;;23.83;13.82;;;12.30;99.90;;;;;;5059427;28;20045;-72
2022/10/27 07:03:07;;;;;;;24.13;15.50;;;12.40;99.90;;;;;;5058956;28;20052;-70
2022/10/27 07:05:33;;;;;;;25.30;14.35;;;12.30;99.90;;;;;;5076576;28;20063;-71
2022/10/27 07:07:58;;;;;;;21.80;13.15;;;12.30;99.90;;;;;;5065129;28;20038;-71
2022/10/27 07:10:24;;;;;;;20.90;13.68;;;12.40;99.90;;;;;;5038977;28;20048;-72
2022/10/27 07:12:55;;;;;;;23.95;13.98;;;12.40;99.90;;;;;;5056852;28;20041;-70
2022/10/27 07:15:21;;;;;;;23.10;12.75;;;12.50;99.90;;;;;;5039824;28;20059;-70
2022/10/27 07:17:47;;;;;;;21.77;13.57;;;12.60;99.90;;;;;;5064748;28;20457;-70
2022/10/27 07:20:13;;;;;;;21.50;12.27;;;12.60;99.90;;;;;;5075827;28;20036;-72
2022/10/27 07:22:40;;;;;;;21.38;13.48;;;12.70;99.90;;;;;;5075703;28;20098;-71
2022/10/27 07:25:06;;;;;;;20.75;11.30;;;12.80;99.90;;;;;;5076680;28;20057;-75
2022/10/27 07:27:32;;;;;;;20.23;11.00;;;12.80;99.90;;;;;;5068838;28;20510;-73
2022/10/27 07:29:58;;;;;;;22.67;11.75;;;12.90;99.90;;;;;;5038465;28;20068;-71
2022/10/27 07:32:23;;;;;;;19.58;10.70;;;13.00;99.90;;;;;;5056158;28;20048;-71
2022/10/27 07:34:49;;;;;;;18.35;10.52;;;13.00;99.90;;;;;;5055903;28;20037;-70
2022/10/27 07:37:14;;;;;;;21.35;10.65;;;13.00;99.90;;;;;;5060078;28;20045;-71
2022/10/27 07:39:40;;;;;;;17.55;9.65;;;13.20;99.90;;;;;;5075491;28;20055;-72
2022/10/27 07:42:05;;;;;;;17.17;9.25;;;13.20;99.90;;;;;;5075824;28;20040;-73
2022/10/27 07:44:31;;;;;;;21.13;10.18;;;13.30;99.90;;;;;;5058962;28;20056;-70
2022/10/27 07:46:57;;;;;;;19.65;9.68;;;13.40;99.90;;;;;;5074197;28;20127;-71
2022/10/27 07:49:22;;;;;;;15.95;9.55;;;13.40;99.90;;;;;;5021640;28;20342;-71
2022/10/27 07:51:48;;;;;;;16.98;8.98;;;13.50;99.90;;;;;;5056456;28;20334;-71
2022/10/27 07:54:13;;;;;;;20.20;9.38;;;13.50;99.90;;;;;;5038340;28;20045;-69
2022/10/27 07:56:39;;;;;;;17.52;9.27;;;13.70;99.90;;;;;;5038503;28;20399;-73
2022/10/27 07:59:04;;;;;;;20.67;8.15;;;13.70;99.90;;;;;;5074730;28;20056;-71
2022/10/27 08:01:30;;;;;;;15.43;8.88;;;13.80;99.90;;;;;;5075787;28;20056;-70
2022/10/27 08:03:55;;;;;;;15.57;7.68;;;13.70;99.90;;;;;;5075592;28;20406;-71
2022/10/27 08:06:22;;;;;;;20.23;9.07;;;13.80;99.90;;;;;;5075184;28;20044;-70
2022/10/27 08:08:48;;;;;;;15.75;8.55;;;13.80;99.90;;;;;;5040999;28;20132;-70
2022/10/27 08:11:13;;;;;;;18.52;8.45;;;13.80;99.90;;;;;;5055783;28;20141;-73
2022/10/27 08:13:39;;;;;;;14.57;8.40;;;13.90;99.90;;;;;;5055113;28;20048;-70
2022/10/27 08:16:05;;;;;;;12.93;7.70;;;13.90;99.90;;;;;;5055588;28;20045;-70
2022/10/27 08:18:30;;;;;;;13.73;7.93;;;14.00;99.90;;;;;;5069016;28;20052;-72
2022/10/27 08:20:56;;;;;;;15.00;8.60;;;14.00;99.90;;;;;;5074424;28;20433;-71
2022/10/27 08:23:24;;;;;;;20.08;9.07;;;14.20;99.90;;;;;;5057186;28;20111;-71
2022/10/27 08:25:50;;;;;;;24.75;9.18;;;14.10;99.90;;;;;;5075015;28;20048;-72
2022/10/27 08:28:16;;;;;;;17.88;8.57;;;14.20;99.90;;;;;;5062753;28;20044;-72
2022/10/27 08:30:42;;;;;;;20.08;9.45;;;14.20;99.90;;;;;;5037950;28;20060;-70
2022/10/27 08:33:09;;;;;;;15.00;7.68;;;14.20;99.90;;;;;;5037053;28;20106;-71
2022/10/27 08:35:35;;;;;;;13.32;8.18;;;14.40;99.90;;;;;;5058126;28;20036;-70
2022/10/27 08:38:10;;;;;;;14.93;7.70;;;14.20;99.90;;;;;;5075128;28;20083;-70
2022/10/27 08:40:58;;;;;;;13.88;7.20;;;14.30;99.90;;;;;;5074767;28;20445;-71
2022/10/27 08:43:38;;;;;;;13.93;6.85;;;14.30;99.90;;;;;;5074459;28;20036;-70
2022/10/27 08:46:15;;;;;;;13.95;7.30;;;14.30;99.90;;;;;;5067223;28;20044;-73
2022/10/27 08:48:42;;;;;;;9.18;6.10;;;14.30;99.90;;;;;;5054872;28;20129;-72
2022/10/27 08:51:14;;;;;;;14.85;7.47;;;14.40;99.90;;;;;;5038251;28;20088;-72
2022/10/27 08:53:41;;;;;;;15.15;7.43;;;14.50;99.90;;;;;;5054597;28;20091;-71
2022/10/27 08:56:11;;;;;;;12.02;6.60;;;14.50;99.90;;;;;;5062338;28;20132;-71
2022/10/27 08:58:40;;;;;;;14.00;6.78;;;14.50;99.90;;;;;;5057714;28;20049;-72
2022/10/27 09:01:08;;;;;;;13.25;6.85;;;14.60;99.90;;;;;;5074674;28;20052;-72
2022/10/27 09:03:47;;;;;;;15.50;6.72;;;14.70;99.90;;;;;;5075450;28;20044;-70
2022/10/27 09:06:23;;;;;;;14.20;6.57;;;14.70;99.90;;;;;;5066425;28;20033;-71
2022/10/27 09:08:48;;;;;;;33.10;7.35;;;14.80;99.90;;;;;;5054513;28;20098;-71
2022/10/27 09:11:51;;;;;;;12.25;6.25;;;14.90;99.90;;;;;;5054648;28;20128;-72
2022/10/27 09:14:45;;;;;;;15.10;6.97;;;14.90;99.90;;;;;;5054709;28;20449;-71
2022/10/27 09:17:21;;;;;;;10.45;6.22;;;15.00;99.90;;;;;;5068948;28;20074;-71
2022/10/27 09:19:54;;;;;;;11.93;6.53;;;15.10;99.90;;;;;;5074352;28;20055;-70
2022/10/27 09:22:20;;;;;;;14.63;7.10;;;15.10;99.90;;;;;;5057109;28;20432;-71
2022/10/27 09:24:56;;;;;;;11.32;6.05;;;15.20;99.90;;;;;;5074740;28;20128;-72
2022/10/27 09:27:22;;;;;;;12.20;6.85;;;15.20;99.90;;;;;;5057301;28;20049;-72
2022/10/27 09:29:50;;;;;;;13.10;6.00;;;15.20;99.90;;;;;;5037312;28;20132;-73
2022/10/27 09:32:23;;;;;;;14.82;6.18;;;15.30;99.90;;;;;;5054469;28;20048;-71
2022/10/27 09:35:02;;;;;;;9.45;5.88;;;15.30;99.90;;;;;;5054743;28;20056;-71
2022/10/27 09:37:32;;;;;;;10.50;5.47;;;15.40;99.90;;;;;;5070587;28;20059;-71
2022/10/27 09:39:58;;;;;;;10.32;5.43;;;15.50;99.90;;;;;;5074592;28;20048;-71
2022/10/27 09:42:29;;;;;;;18.83;5.63;;;15.60;99.90;;;;;;5074353;28;20106;-73
2022/10/27 09:44:59;;;;;;;14.63;6.10;;;15.60;99.90;;;;;;5075310;28;20048;-71
2022/10/27 09:47:28;;;;;;;15.10;6.10;;;15.80;99.90;;;;;;5061848;28;20099;-71
2022/10/27 09:49:56;;;;;;;13.77;6.15;;;15.80;99.90;;;;;;5040457;28;20358;-71
2022/10/27 09:52:30;;;;;;;11.70;5.85;;;15.90;99.90;;;;;;5058211;28;20322;-71
2022/10/27 09:54:57;;;;;;;9.45;5.13;;;16.00;99.90;;;;;;5057938;28;20045;-73
2022/10/27 09:57:28;;;;;;;9.27;4.70;;;16.10;99.90;;;;;;5057846;28;20045;-71
2022/10/27 09:59:59;;;;;;;13.75;4.68;;;16.20;99.90;;;;;;5058269;28;20132;-73
2022/10/27 10:02:34;;;;;;;13.23;4.50;;;16.30;99.90;;;;;;5077551;28;20121;-72
2022/10/27 10:05:00;;;;;;;9.68;4.32;;;16.50;99.90;;;;;;5060249;28;20080;-71
2022/10/27 10:07:34;;;;;;;10.07;4.05;;;16.50;99.90;;;;;;5061614;28;20060;-73
2022/10/27 10:10:24;;;;;;;9.52;4.07;;;16.60;99.90;;;;;;5040529;28;20055;-71
2022/10/27 10:13:11;;;;;;;8.48;3.28;;;16.70;99.90;;;;;;5040300;28;20044;-73
2022/10/27 10:15:43;;;;;;;6.18;3.10;;;16.80;99.90;;;;;;5057312;28;20037;-71
2022/10/27 10:18:28;;;;;;;5.83;2.70;;;16.90;99.90;;;;;;5057614;28;20095;-73
2022/10/27 10:21:06;;;;;;;4.80;2.58;;;16.90;99.90;;;;;;5057960;28;20124;-71
2022/10/27 10:23:46;;;;;;;11.25;2.97;;;17.00;99.90;;;;;;5057591;28;20098;-71
2022/10/27 10:26:20;;;;;;;6.57;2.30;;;17.10;99.90;;;;;;5057674;28;20045;-72
2022/10/27 10:28:46;;;;;;;;;;;17.30;99.90;;;;;;5057690;28;20488;-73
2022/10/27 10:31:15;;;;;;;12.52;3.08;;;17.40;99.90;;;;;;5057532;28;19921;-71
2022/10/27 10:33:44;;;;;;;8.70;2.20;;;17.40;99.90;;;;;;5039705;28;20045;-72
2022/10/27 10:36:32;;;;;;;7.18;2.38;;;17.40;99.90;;;;;;5060791;28;20071;-71
2022/10/27 10:38:59;;;;;;;7.65;2.80;;;17.50;99.90;;;;;;5077020;28;20052;-73
2022/10/27 10:41:26;;;;;;;11.25;2.90;;;17.60;99.90;;;;;;5077127;28;20041;-72
2022/10/27 10:44:10;;;;;;;9.32;2.50;;;17.60;99.90;;;;;;5077178;28;20057;-72
2022/10/27 10:46:50;;;;;;;13.25;3.60;;;17.80;99.90;;;;;;5069727;28;20342;-74
2022/10/27 10:49:31;;;;;;;7.80;2.00;;;17.80;99.90;;;;;;5057554;28;20357;-73
2022/10/27 10:52:14;;;;;;;5.53;1.98;;;17.90;99.90;;;;;;5057147;28;20064;-72
2022/10/27 10:54:41;;;;;;;4.65;2.33;;;18.00;99.90;;;;;;5057077;28;20044;-70
2022/10/27 10:57:28;;;;;;;9.30;2.03;;;18.00;99.90;;;;;;5066743;28;20381;-72
2022/10/27 10:59:55;;;;;;;6.90;2.17;;;18.10;99.90;;;;;;5077276;28;20092;-72
2022/10/27 11:02:32;;;;;;;7.93;2.00;;;18.20;99.90;;;;;;5059465;28;20060;-71
2022/10/27 11:05:20;;;;;;;5.97;1.90;;;18.20;99.90;;;;;;5077456;28;20357;-71
2022/10/27 11:07:47;;;;;;;8.02;2.40;;;18.30;99.90;;;;;;5042627;28;20045;-71
2022/10/27 11:10:22;;;;;;;4.93;2.15;;;18.30;99.90;;;;;;5039406;28;20072;-72
2022/10/27 11:13:05;;;;;;;6.03;1.98;;;18.40;99.90;;;;;;5056580;28;20048;-72
2022/10/27 11:15:34;;;;;;;5.47;1.85;;;18.40;99.90;;;;;;5056638;28;20055;-71
2022/10/27 11:18:12;;;;;;;9.70;1.60;;;18.50;99.90;;;;;;5056147;28;20048;-71
2022/10/27 11:20:37;;;;;;;7.60;1.92;;;18.50;99.90;;;;;;5059302;28;20080;-71
2022/10/27 11:23:14;;;;;;;10.73;1.70;;;18.60;99.90;;;;;;5059706;28;20080;-71
2022/10/27 11:25:41;;;;;;;6.55;1.90;;;18.60;99.90;;;;;;5076504;28;20085;-70
2022/10/27 11:28:26;;;;;;;4.22;1.80;;;18.70;99.90;;;;;;5057258;28;20057;-71
2022/10/27 11:30:59;;;;;;;9.23;2.40;;;18.70;99.90;;;;;;5056133;28;20128;-72
2022/10/27 11:33:37;;;;;;;7.05;1.80;;;18.90;99.90;;;;;;5056227;28;20084;-73
2022/10/27 11:36:19;;;;;;;9.52;2.13;;;19.00;99.90;;;;;;5057896;28;20048;-73
2022/10/27 11:39:07;;;;;;;5.22;1.83;;;19.00;99.90;;;;;;5076329;28;20041;-71
2022/10/27 11:41:50;;;;;;;12.77;2.00;;;19.00;99.90;;;;;;5057850;28;20056;-71
2022/10/27 11:44:35;;;;;;;7.47;2.50;;;19.00;99.90;;;;;;5058294;28;20048;-71
2022/10/27 11:47:09;;;;;;;7.93;1.70;;;18.90;99.90;;;;;;5066065;28;20128;-73
2022/10/27 11:49:38;;;;;;;8.18;2.08;;;18.80;99.90;;;;;;5056419;28;20060;-73
2022/10/27 11:52:14;;;;;;;9.07;1.77;;;18.80;99.90;;;;;;5055837;28;20049;-72
2022/10/27 11:54:40;;;;;;;12.85;1.92;;;18.80;99.90;;;;;;5055702;28;20045;-72
2022/10/27 11:57:23;;;;;;;7.28;1.70;;;18.70;99.90;;;;;;5065353;28;20033;-71
2022/10/27 11:59:57;;;;;;;;;;;18.80;99.90;;;;;;5076183;28;20071;-71
2022/10/27 12:02:31;;;;;;;6.00;1.80;;;18.70;99.90;;;;;;5075383;28;20423;-72
2022/10/27 12:05:24;;;;;;;6.13;1.83;;;18.80;99.90;;;;;;5075367;28;20105;-70
2022/10/27 12:08:06;;;;;;;5.85;1.63;;;18.90;99.90;;;;;;5058730;28;20049;-71
2022/10/27 12:10:45;;;;;;;4.55;1.63;;;18.90;99.90;;;;;;5055204;28;20053;-70
2022/10/27 12:13:28;;;;;;;10.32;1.63;;;18.90;99.90;;;;;;5055741;28;20298;-72
2022/10/27 12:15:59;;;;;;;5.55;1.92;;;19.00;99.90;;;;;;5037788;28;20049;-72
2022/10/27 12:18:53;;;;;;;5.60;1.98;;;19.00;99.90;;;;;;5037717;28;20049;-71
2022/10/27 12:21:21;;;;;;;7.93;1.90;;;19.10;99.90;;;;;;5055072;28;20041;-71
2022/10/27 12:24:04;;;;;;;6.32;1.48;;;19.00;99.90;;;;;;5034739;28;20108;-71
2022/10/27 12:26:38;;;;;;;7.03;1.80;;;19.10;99.90;;;;;;5020677;28;20049;-71
2022/10/27 12:29:05;;;;;;;6.63;1.75;;;19.10;99.90;;;;;;5074978;28;20040;-72
2022/10/27 12:31:37;;;;;;;7.50;1.85;;;19.10;99.90;;;;;;5075184;28;20044;-74
2022/10/27 12:34:06;;;;;;;6.43;1.75;;;19.00;99.90;;;;;;5075032;28;20113;-71
2022/10/27 12:36:54;;;;;;;6.80;1.98;;;19.00;99.90;;;;;;5070060;28;20465;-72
2022/10/27 12:39:46;;;;;;;5.28;1.98;;;18.90;99.90;;;;;;5055276;28;20445;-72
2022/10/27 12:42:36;;;;;;;11.68;2.40;;;18.80;99.90;;;;;;5055260;28;20354;-71
2022/10/27 12:45:22;;;;;;;10.07;1.67;;;18.80;99.90;;;;;;5055188;28;20081;-72
2022/10/27 12:48:23;;;;;;;5.70;1.77;;;18.60;99.90;;;;;;5069530;28;20437;-71
2022/10/27 12:50:51;;;;;;;7.35;1.80;;;18.60;99.90;;;;;;5017351;28;20056;-71